createdAt,value
2019-01-18T00:01:38.208Z,101153.97
2019-01-18T00:04:08.139Z,101151.63
2019-01-18T00:06:37.979Z,101157.47
2019-01-18T00:09:08.673Z,101158.28
2019-01-18T00:11:38.415Z,101166.52
2019-01-18T00:14:08.192Z,101160.83
2019-01-18T00:16:37.897Z,101165.94
2019-01-18T00:19:07.642Z,101168.15
2019-01-18T00:21:37.340Z,101164.78
2019-01-18T00:24:07.127Z,101170.17
2019-01-18T00:26:36.869Z,101166.30
2019-01-18T00:29:07.086Z,101178.34
2019-01-18T00:31:36.847Z,101175.57
2019-01-18T00:34:06.689Z,101180.10
2019-01-18T00:36:36.422Z,101194.23
2019-01-18T00:39:08.611Z,101192.64
2019-01-18T00:41:38.609Z,101196.80
2019-01-18T00:44:08.276Z,101209.56
2019-01-18T00:46:37.950Z,101211.66
2019-01-18T00:49:07.627Z,101215.26
2019-01-18T00:51:37.289Z,101217.51
2019-01-18T00:54:06.988Z,101217.88
2019-01-18T00:56:36.731Z,101220.79
2019-01-18T00:59:06.627Z,101222.23
2019-01-18T01:01:36.292Z,101228.89
2019-01-18T01:04:06.517Z,101227.80
2019-01-18T01:06:36.263Z,101230.27
2019-01-18T01:09:07.656Z,101241.36
2019-01-18T01:11:37.355Z,101246.58
2019-01-18T01:14:07.171Z,101244.77
2019-01-18T01:16:36.920Z,101249.68
2019-01-18T01:19:06.844Z,101247.83
2019-01-18T01:21:36.612Z,101255.11
2019-01-18T01:24:06.526Z,101256.20
2019-01-18T01:26:36.308Z,101263.09
2019-01-18T01:29:06.233Z,101267.25
2019-01-18T01:31:36.089Z,101279.19
2019-01-18T01:34:06.170Z,101284.22
2019-01-18T01:36:35.969Z,101287.61
2019-01-18T01:39:09.811Z,101290.95
2019-01-18T01:41:39.843Z,101290.91
2019-01-18T01:44:09.666Z,101294.55
2019-01-18T01:46:39.394Z,101298.78
2019-01-18T01:49:09.164Z,101303.70
2019-01-18T01:51:38.879Z,101311.00
2019-01-18T01:54:08.657Z,101318.78
2019-01-18T01:56:38.377Z,101326.55
2019-01-18T01:59:08.125Z,101330.64
2019-01-18T02:01:37.767Z,101342.23
2019-01-18T02:04:07.612Z,101344.76
2019-01-18T02:06:37.249Z,101349.44
2019-01-18T02:09:08.487Z,101355.75
2019-01-18T02:11:38.170Z,101350.44
2019-01-18T02:14:08.062Z,101355.51
2019-01-18T02:16:37.776Z,101352.13
2019-01-18T02:19:07.576Z,101362.95
2019-01-18T02:21:37.317Z,101367.45
2019-01-18T02:24:07.225Z,101370.55
2019-01-18T02:26:36.927Z,101379.23
2019-01-18T02:29:07.052Z,101384.31
2019-01-18T02:31:36.782Z,101389.16
2019-01-18T02:34:06.485Z,101389.77
2019-01-18T02:36:36.514Z,101396.97
2019-01-18T02:39:08.749Z,101396.69
2019-01-18T02:41:38.516Z,101398.92
2019-01-18T02:44:08.237Z,101402.93
2019-01-18T02:46:37.964Z,101406.27
2019-01-18T02:49:07.625Z,101409.73
2019-01-18T02:51:37.320Z,101416.37
2019-01-18T02:54:07.254Z,101417.34
2019-01-18T02:56:36.916Z,101423.05
2019-01-18T02:59:06.598Z,101426.95
2019-01-18T03:01:36.515Z,101423.93
2019-01-18T03:04:06.290Z,101426.37
2019-01-18T03:06:35.949Z,101428.72
2019-01-18T03:09:09.673Z,101437.48
2019-01-18T03:11:39.492Z,101436.59
2019-01-18T03:14:09.182Z,101439.92
2019-01-18T03:16:38.988Z,101443.75
2019-01-18T03:19:08.836Z,101443.57
2019-01-18T03:21:38.632Z,101449.84
2019-01-18T03:24:08.281Z,101441.88
2019-01-18T03:26:38.147Z,101449.20
2019-01-18T03:29:07.792Z,101453.00
2019-01-18T03:31:37.578Z,101458.16
2019-01-18T03:34:07.459Z,101463.12
2019-01-18T03:36:37.133Z,101468.16
2019-01-18T03:39:09.903Z,101479.27
2019-01-18T03:41:39.968Z,101482.83
2019-01-18T03:44:09.840Z,101488.98
2019-01-18T03:46:39.659Z,101494.86
2019-01-18T03:49:09.537Z,101499.91
2019-01-18T03:51:39.299Z,101502.13
2019-01-18T03:54:09.079Z,101501.44
2019-01-18T03:56:38.790Z,101514.36
2019-01-18T03:59:08.498Z,101504.58
2019-01-18T04:01:38.346Z,101515.67
2019-01-18T04:04:08.166Z,101514.23
2019-01-18T04:06:37.931Z,101510.51
2019-01-18T04:09:08.357Z,101522.52
2019-01-18T04:11:38.169Z,101530.89
2019-01-18T04:14:08.063Z,101527.56
2019-01-18T04:16:38.132Z,101532.73
2019-01-18T04:19:07.790Z,101529.17
2019-01-18T04:21:37.520Z,101533.11
2019-01-18T04:24:07.345Z,101542.41
2019-01-18T04:26:37.019Z,101538.37
2019-01-18T04:29:06.819Z,101548.05
2019-01-18T04:31:36.591Z,101544.72
2019-01-18T04:34:06.352Z,101549.27
2019-01-18T04:36:36.105Z,101561.56
2019-01-18T04:39:07.722Z,101562.39
2019-01-18T04:41:37.363Z,101551.28
2019-01-18T04:44:07.120Z,101555.63
2019-01-18T04:46:36.963Z,101550.38
2019-01-18T04:49:06.737Z,101546.54
2019-01-18T04:51:36.398Z,101550.97
2019-01-18T04:54:06.326Z,101551.28
2019-01-18T04:56:35.971Z,101546.73
2019-01-18T04:59:05.719Z,101547.35
2019-01-18T05:01:35.516Z,101551.38
2019-01-18T05:04:05.249Z,101557.23
2019-01-18T05:06:35.054Z,101562.27
2019-01-18T05:09:06.801Z,101567.02
2019-01-18T05:11:36.538Z,101572.96
2019-01-18T05:14:06.268Z,101576.36
2019-01-18T05:16:36.013Z,101576.56
2019-01-18T05:19:05.831Z,101579.89
2019-01-18T05:21:35.656Z,101587.45
2019-01-18T05:24:05.478Z,101591.11
2019-01-18T05:26:35.270Z,101596.23
2019-01-18T05:29:05.007Z,101601.38
2019-01-18T05:31:34.669Z,101601.19
2019-01-18T05:34:04.887Z,101603.10
2019-01-18T05:36:34.666Z,101606.19
2019-01-18T05:39:06.381Z,101612.91
2019-01-18T05:41:36.119Z,101614.14
2019-01-18T05:44:05.831Z,101619.19
2019-01-18T05:46:35.542Z,101615.53
2019-01-18T05:49:05.334Z,101617.06
2019-01-18T05:51:35.076Z,101624.75
2019-01-18T05:54:05.022Z,101624.92
2019-01-18T05:56:34.823Z,101630.09
2019-01-18T05:59:04.568Z,101633.60
2019-01-18T06:01:34.315Z,101639.12
2019-01-18T06:04:04.299Z,101646.25
2019-01-18T06:06:34.026Z,101658.80
2019-01-18T06:09:05.229Z,101660.51
2019-01-18T06:11:35.045Z,101663.36
2019-01-18T06:14:04.873Z,101666.30
2019-01-18T06:16:34.581Z,101670.13
2019-01-18T06:19:04.388Z,101672.55
2019-01-18T06:21:34.028Z,101671.36
2019-01-18T06:24:04.149Z,101678.81
2019-01-18T06:26:34.029Z,101679.47
2019-01-18T06:29:03.820Z,101679.94
2019-01-18T06:31:33.609Z,101686.41
2019-01-18T06:34:03.268Z,101693.81
2019-01-18T06:36:33.098Z,101694.02
2019-01-18T06:39:03.147Z,101690.57
2019-01-18T06:41:34.992Z,101686.73
2019-01-18T06:44:06.197Z,101693.19
2019-01-18T06:46:36.465Z,101689.66
2019-01-18T06:49:07.453Z,101691.75
2019-01-18T06:51:37.216Z,101700.44
2019-01-18T06:54:07.126Z,101705.70
2019-01-18T06:56:36.825Z,101709.53
2019-01-18T06:59:06.466Z,101711.27
2019-01-18T07:01:36.276Z,101721.42
2019-01-18T07:04:06.231Z,101729.28
2019-01-18T07:06:36.379Z,101730.98
2019-01-18T07:09:08.565Z,101734.42
2019-01-18T07:11:38.289Z,101741.89
2019-01-18T07:14:08.109Z,101736.20
2019-01-18T07:16:37.855Z,101734.33
2019-01-18T07:19:07.679Z,101740.09
2019-01-18T07:21:37.453Z,101742.48
2019-01-18T07:24:07.210Z,101742.09
2019-01-18T07:26:36.868Z,101743.70
2019-01-18T07:29:06.732Z,101738.26
2019-01-18T07:31:36.526Z,101741.23
2019-01-18T07:34:06.351Z,101741.73
2019-01-18T07:36:36.129Z,101735.47
2019-01-18T07:39:07.985Z,101739.14
2019-01-18T07:41:37.774Z,101746.45
2019-01-18T07:44:07.517Z,101744.97
2019-01-18T07:46:37.180Z,101747.42
2019-01-18T07:49:06.967Z,101752.08
2019-01-18T07:51:37.573Z,101746.74
2019-01-18T07:54:07.292Z,101749.16
2019-01-18T07:56:36.964Z,101753.06
2019-01-18T07:59:06.621Z,101757.57
2019-01-18T08:01:36.576Z,101761.41
2019-01-18T08:04:06.430Z,101769.24
2019-01-18T08:06:36.255Z,101776.31
2019-01-18T08:09:08.936Z,101774.91
2019-01-18T08:11:38.741Z,101781.44
2019-01-18T08:14:08.492Z,101780.36
2019-01-18T08:16:38.209Z,101789.59
2019-01-18T08:19:07.998Z,101785.37
2019-01-18T08:21:37.824Z,101788.73
2019-01-18T08:24:07.533Z,101794.43
2019-01-18T08:26:37.285Z,101800.38
2019-01-18T08:29:07.144Z,101796.70
2019-01-18T08:31:36.898Z,101798.38
2019-01-18T08:34:06.572Z,101805.30
2019-01-18T08:36:36.394Z,101809.77
2019-01-18T08:39:08.301Z,101803.20
2019-01-18T08:41:38.131Z,101802.72
2019-01-18T08:44:07.787Z,101812.02
2019-01-18T08:46:37.741Z,101804.77
2019-01-18T08:49:07.576Z,101805.30
2019-01-18T08:51:37.259Z,101814.29
2019-01-18T08:54:07.134Z,101808.84
2019-01-18T08:56:37.173Z,101817.41
2019-01-18T08:59:06.932Z,101820.36
2019-01-18T09:01:36.757Z,101820.66
2019-01-18T09:04:06.671Z,101822.17
2019-01-18T09:09:09.041Z,101826.33
2019-01-18T09:11:38.842Z,101833.38
2019-01-18T09:14:08.560Z,101840.97
2019-01-18T09:16:38.348Z,101846.22
2019-01-18T09:19:08.024Z,101850.58
2019-01-18T09:21:37.762Z,101849.47
2019-01-18T09:24:07.563Z,101854.92
2019-01-18T09:26:37.284Z,101849.27
2019-01-18T09:29:07.037Z,101847.67
2019-01-18T09:31:42.467Z,101852.81
2019-01-18T09:34:08.428Z,101860.20
2019-01-18T09:36:38.443Z,101863.65
2019-01-18T09:39:08.649Z,101865.58
2019-01-18T09:41:38.535Z,101868.53
2019-01-18T09:44:08.326Z,101870.63
2019-01-18T09:46:38.027Z,101873.87
2019-01-18T09:49:07.759Z,101879.73
2019-01-18T09:51:37.621Z,101884.00
2019-01-18T09:54:07.474Z,101885.92
2019-01-18T09:56:37.215Z,101886.41
2019-01-18T09:59:06.960Z,101893.89
2019-01-18T10:01:36.819Z,101898.55
2019-01-18T10:04:07.011Z,101901.98
2019-01-18T10:06:36.783Z,101906.02
2019-01-18T10:09:08.326Z,101907.95
2019-01-18T10:11:38.181Z,101909.06
2019-01-18T10:14:08.100Z,101909.16
2019-01-18T10:16:37.881Z,101907.95
2019-01-18T10:19:07.716Z,101915.22
2019-01-18T10:21:37.547Z,101919.66
2019-01-18T10:24:07.307Z,101912.80
2019-01-18T10:26:37.156Z,101911.28
2019-01-18T10:29:09.085Z,101908.86
2019-01-18T10:31:38.867Z,101915.31
2019-01-18T10:34:08.649Z,101916.13
2019-01-18T10:36:38.403Z,101912.80
2019-01-18T10:39:10.439Z,101918.37
2019-01-18T10:41:40.261Z,101923.02
2019-01-18T10:44:10.064Z,101917.66
2019-01-18T10:46:39.763Z,101918.56
2019-01-18T10:49:09.547Z,101921.52
2019-01-18T10:51:39.206Z,101915.14
2019-01-18T10:54:08.890Z,101914.02
2019-01-18T10:56:38.837Z,101917.63
2019-01-18T10:59:08.500Z,101922.11
2019-01-18T11:01:38.194Z,101914.91
2019-01-18T11:04:08.131Z,101917.64
2019-01-18T11:06:37.957Z,101916.33
2019-01-18T11:09:09.572Z,101917.57
2019-01-18T11:11:39.258Z,101923.12
2019-01-18T11:14:09.053Z,101916.85
2019-01-18T11:16:38.946Z,101912.29
2019-01-18T11:19:08.764Z,101910.87
2019-01-18T11:21:38.623Z,101907.63
2019-01-18T11:24:08.363Z,101902.45
2019-01-18T11:26:38.180Z,101900.19
2019-01-18T11:29:07.926Z,101898.67
2019-01-18T11:31:37.740Z,101892.40
2019-01-18T11:34:07.638Z,101893.03
2019-01-18T11:36:37.519Z,101891.69
2019-01-18T11:39:08.836Z,101890.38
2019-01-18T11:41:38.683Z,101885.30
2019-01-18T11:44:08.489Z,101885.91
2019-01-18T11:46:38.262Z,101883.16
2019-01-18T11:49:07.912Z,101883.30
2019-01-18T11:51:37.717Z,101879.34
2019-01-18T11:54:07.475Z,101879.34
2019-01-18T11:56:37.209Z,101884.90
2019-01-18T11:59:06.958Z,101880.58
2019-01-18T12:01:36.742Z,101881.08
2019-01-18T12:04:06.523Z,101872.38
2019-01-18T12:06:36.232Z,101877.45
2019-01-18T12:09:08.032Z,101873.16
2019-01-18T12:11:37.698Z,101876.31
2019-01-18T12:14:07.557Z,101867.48
2019-01-18T12:16:37.435Z,101872.00
2019-01-18T12:19:07.092Z,101869.42
2019-01-18T12:21:37.217Z,101868.88
2019-01-18T12:24:07.191Z,101868.06
2019-01-18T12:26:36.926Z,101868.06
2019-01-18T12:29:06.797Z,101863.55
2019-01-18T12:31:37.454Z,101863.33
2019-01-18T12:34:07.130Z,101855.85
2019-01-18T12:36:37.354Z,101855.85
2019-01-18T12:39:10.465Z,101859.38
2019-01-18T12:41:40.288Z,101851.04
2019-01-18T12:44:09.940Z,101847.27
2019-01-18T12:46:39.651Z,101848.08
2019-01-18T12:49:09.318Z,101845.91
2019-01-18T12:51:39.201Z,101849.35
2019-01-18T12:54:09.221Z,101846.83
2019-01-18T12:56:38.879Z,101844.20
2019-01-18T12:59:08.911Z,101851.38
2019-01-18T13:01:38.643Z,101848.80
2019-01-18T13:04:08.591Z,101837.70
2019-01-18T13:06:38.437Z,101850.19
2019-01-18T13:09:09.261Z,101841.13
2019-01-18T13:11:40.183Z,101835.70
2019-01-18T13:14:10.105Z,101832.73
2019-01-18T13:16:39.913Z,101839.15
2019-01-18T13:19:09.636Z,101836.02
2019-01-18T13:21:39.359Z,101831.79
2019-01-18T13:24:09.173Z,101829.22
2019-01-18T13:26:38.936Z,101820.21
2019-01-18T13:29:08.677Z,101828.88
2019-01-18T13:31:38.397Z,101825.79
2019-01-18T13:34:08.291Z,101820.67
2019-01-18T13:36:38.164Z,101822.91
2019-01-18T13:39:08.875Z,101822.71
2019-01-18T13:41:38.741Z,101823.23
2019-01-18T13:44:08.486Z,101826.47
2019-01-18T13:46:38.235Z,101824.93
2019-01-18T13:49:08.384Z,101827.33
2019-01-18T13:51:38.067Z,101832.98
2019-01-18T13:54:07.912Z,101828.71
2019-01-18T13:56:37.689Z,101830.41
2019-01-18T13:59:07.432Z,101834.08
2019-01-18T14:01:37.195Z,101832.45
2019-01-18T14:04:06.998Z,101836.41
2019-01-18T14:06:36.977Z,101836.56
2019-01-18T14:09:08.570Z,101837.28
2019-01-18T14:11:38.651Z,101840.65
2019-01-18T14:14:08.411Z,101834.30
2019-01-18T14:16:38.329Z,101834.10
2019-01-18T14:19:07.967Z,101839.48
2019-01-18T14:21:37.672Z,101837.55
2019-01-18T14:24:07.338Z,101840.34
2019-01-18T14:26:37.033Z,101836.98
2019-01-18T14:29:06.797Z,101844.22
2019-01-18T14:31:36.599Z,101842.87
2019-01-18T14:34:06.409Z,101840.16
2019-01-18T14:36:36.192Z,101842.12
2019-01-18T14:39:11.484Z,101840.13
2019-01-18T14:41:41.370Z,101842.91
2019-01-18T14:44:11.207Z,101842.55
2019-01-18T14:46:40.979Z,101843.39
2019-01-18T14:49:11.002Z,101838.33
2019-01-18T14:51:40.812Z,101839.18
2019-01-18T14:54:10.593Z,101836.15
2019-01-18T14:56:40.239Z,101836.36
2019-01-18T14:59:10.147Z,101832.23
2019-01-18T15:01:39.978Z,101839.52
2019-01-18T15:04:09.615Z,101836.80
2019-01-18T15:06:39.315Z,101843.00
2019-01-18T15:09:11.156Z,101840.27
2019-01-18T15:11:40.866Z,101838.26
2019-01-18T15:14:10.570Z,101843.12
2019-01-18T15:16:40.336Z,101840.58
2019-01-18T15:19:10.055Z,101844.23
2019-01-18T15:21:39.804Z,101839.69
2019-01-18T15:24:10.397Z,101841.30
2019-01-18T15:26:40.313Z,101844.55
2019-01-18T15:29:10.644Z,101839.89
2019-01-18T15:31:41.220Z,101840.91
2019-01-18T15:34:11.531Z,101836.77
2019-01-18T15:36:41.476Z,101841.02
2019-01-18T15:39:12.592Z,101843.64
2019-01-18T15:41:43.138Z,101844.06
2019-01-18T15:44:13.427Z,101848.41
2019-01-18T15:46:43.343Z,101837.17
2019-01-18T15:49:13.549Z,101842.33
2019-01-18T15:51:43.790Z,101840.20
2019-01-18T15:54:13.852Z,101838.19
2019-01-18T15:56:44.258Z,101837.54
2019-01-18T15:59:14.419Z,101832.28
2019-01-18T16:01:44.992Z,101832.28
2019-01-18T16:04:15.796Z,101830.19
2019-01-18T16:06:45.746Z,101827.64
2019-01-18T16:09:15.620Z,101828.05
2019-01-18T16:11:45.695Z,101826.13
2019-01-18T16:14:15.610Z,101829.45
2019-01-18T16:16:45.791Z,101824.20
2019-01-18T16:19:15.785Z,101825.63
2019-01-18T16:21:45.755Z,101827.93
2019-01-18T16:24:15.812Z,101827.64
2019-01-18T16:26:45.665Z,101824.51
2019-01-18T16:29:16.015Z,101828.23
2019-01-18T16:31:45.739Z,101823.69
2019-01-18T16:34:15.618Z,101822.57
2019-01-18T16:36:45.367Z,101822.37
2019-01-18T16:39:16.428Z,101826.20
2019-01-18T16:41:46.119Z,101829.31
2019-01-18T16:44:15.808Z,101827.91
2019-01-18T16:46:45.500Z,101825.57
2019-01-18T16:49:15.221Z,101832.13
2019-01-18T16:51:44.975Z,101833.16
2019-01-18T16:54:14.683Z,101831.21
2019-01-18T16:56:45.046Z,101829.39
2019-01-18T16:59:15.282Z,101829.88
2019-01-18T17:01:45.267Z,101829.27
2019-01-18T17:04:22.037Z,101829.76
2019-01-18T17:06:52.074Z,101827.45
2019-01-18T17:09:22.179Z,101831.47
2019-01-18T17:11:52.748Z,101826.72
2019-01-18T17:14:23.407Z,101825.31
2019-01-18T17:16:53.970Z,101825.19
2019-01-18T17:19:24.458Z,101824.98
2019-01-18T17:21:54.778Z,101826.63
2019-01-18T17:24:24.830Z,101825.31
2019-01-18T17:26:55.471Z,101824.49
2019-01-18T17:29:25.371Z,101825.71
2019-01-18T17:31:55.112Z,101823.29
2019-01-18T17:34:25.165Z,101827.30
2019-01-18T17:36:55.225Z,101826.08
2019-01-18T17:39:38.614Z,101826.50
2019-01-18T17:42:18.794Z,101827.31
2019-01-18T17:45:15.583Z,101826.20
2019-01-18T17:48:07.575Z,101824.59
2019-01-18T17:51:10.811Z,101815.29
2019-01-18T17:54:05.848Z,101824.00
2019-01-18T17:57:00.684Z,101825.93
2019-01-18T18:00:04.844Z,101824.20
2019-01-18T18:02:56.752Z,101824.00
2019-01-18T18:05:50.449Z,101820.95
2019-01-18T18:08:58.342Z,101823.29
2019-01-18T18:11:44.255Z,101828.21
2019-01-18T18:14:44.003Z,101830.73
2019-01-18T18:17:32.517Z,101825.91
2019-01-18T18:20:21.311Z,101826.28
2019-01-18T18:23:31.924Z,101821.03
2019-01-18T18:26:17.850Z,101821.72
2019-01-18T18:29:06.468Z,101820.13
2019-01-18T18:32:04.468Z,101817.50
2019-01-18T18:34:53.991Z,101824.25
2019-01-18T18:37:42.758Z,101826.58
2019-01-18T18:40:59.131Z,101825.17
2019-01-18T18:43:52.771Z,101828.91
2019-01-18T18:46:41.031Z,101825.17
2019-01-18T18:49:35.820Z,101826.19
2019-01-18T18:52:30.316Z,101822.74
2019-01-18T18:55:19.906Z,101823.03
2019-01-18T18:58:23.110Z,101822.94
2019-01-18T19:01:09.224Z,101821.34
2019-01-18T19:04:01.211Z,101818.71
2019-01-18T19:06:44.233Z,101816.58
2019-01-18T19:09:39.536Z,101817.48
2019-01-18T19:12:30.233Z,101816.16
2019-01-18T19:15:36.969Z,101816.78
2019-01-18T19:18:42.059Z,101810.91
2019-01-18T19:21:38.460Z,101815.14
2019-01-18T19:24:17.438Z,101812.99
2019-01-18T19:27:06.778Z,101810.63
2019-01-18T19:29:54.027Z,101812.72
2019-01-18T19:32:57.262Z,101804.66
2019-01-18T19:35:34.211Z,101806.91
2019-01-18T19:38:35.512Z,101813.14
2019-01-18T19:41:18.197Z,101806.18
2019-01-18T19:44:16.197Z,101801.55
2019-01-18T19:46:53.121Z,101805.69
2019-01-18T19:49:43.820Z,101804.13
2019-01-18T19:52:26.757Z,101798.94
2019-01-18T19:55:16.059Z,101799.94
2019-01-18T19:58:15.777Z,101794.09
2019-01-18T20:01:23.177Z,101797.16
2019-01-18T20:04:00.062Z,101792.19
2019-01-18T20:07:14.456Z,101803.34
2019-01-18T20:09:54.238Z,101800.05
2019-01-18T20:12:36.998Z,101800.07
2019-01-18T20:15:34.818Z,101800.66
2019-01-18T20:18:09.124Z,101795.06
2019-01-18T20:20:45.950Z,101792.64
2019-01-18T20:24:06.420Z,101799.13
2019-01-18T20:26:43.450Z,101789.00
2019-01-18T20:30:07.284Z,101793.53
2019-01-18T20:32:57.886Z,101793.46
2019-01-18T20:35:49.963Z,101789.75
2019-01-18T20:38:26.917Z,101794.50
2019-01-18T20:41:36.861Z,101789.55
2019-01-18T20:44:35.253Z,101793.00
2019-01-18T20:47:15.354Z,101796.83
2019-01-18T20:49:52.210Z,101790.83
2019-01-18T20:52:32.169Z,101795.58
2019-01-18T20:55:32.975Z,101795.38
2019-01-18T20:58:21.771Z,101786.34
2019-01-18T21:01:33.326Z,101795.52
2019-01-18T21:04:34.310Z,101790.83
2019-01-18T21:07:20.402Z,101794.43
2019-01-18T21:10:12.391Z,101788.20
2019-01-18T21:13:22.576Z,101780.88
2019-01-18T21:16:20.523Z,101787.95
2019-01-18T21:19:09.695Z,101786.96
2019-01-18T21:22:09.199Z,101790.89
2019-01-18T21:25:03.971Z,101790.70
2019-01-18T21:27:49.935Z,101792.20
2019-01-18T21:30:35.980Z,101791.91
2019-01-18T21:33:30.533Z,101788.73
2019-01-18T21:36:07.556Z,101797.00
2019-01-18T21:38:52.912Z,101790.80
2019-01-18T21:41:27.196Z,101790.38
2019-01-18T21:44:10.243Z,101790.77
2019-01-18T21:46:50.137Z,101794.38
2019-01-18T21:49:32.950Z,101789.53
2019-01-18T21:52:43.247Z,101793.09
2019-01-18T21:55:44.202Z,101791.30
2019-01-18T21:58:32.870Z,101792.61
2019-01-18T22:01:44.735Z,101790.91
2019-01-18T22:04:40.132Z,101788.91
2019-01-18T22:07:27.529Z,101790.80
2019-01-18T22:10:24.932Z,101792.80
2019-01-18T22:13:04.629Z,101793.58
2019-01-18T22:16:31.407Z,101789.13
2019-01-18T22:19:35.112Z,101789.13
2019-01-18T22:22:27.878Z,101792.17
2019-01-18T22:25:26.263Z,101791.48
2019-01-18T22:28:05.493Z,101793.66
2019-01-18T22:30:56.146Z,101790.70
2019-01-18T22:33:52.720Z,101797.84
2019-01-18T22:36:43.516Z,101797.74
2019-01-18T22:39:20.279Z,101801.28
2019-01-18T22:42:12.140Z,101805.55
2019-01-18T22:44:54.916Z,101800.90
2019-01-18T22:47:58.058Z,101801.95
2019-01-18T22:50:50.134Z,101799.90
2019-01-18T22:53:50.165Z,101798.00
2019-01-18T22:56:51.620Z,101804.73
2019-01-18T22:59:40.849Z,101800.50
2019-01-18T23:02:27.118Z,101795.85
2019-01-18T23:05:25.339Z,101794.30
2019-01-18T23:08:33.001Z,101795.20
2019-01-18T23:11:15.910Z,101793.66
2019-01-18T23:14:04.966Z,101795.06
2019-01-18T23:16:50.849Z,101793.91
2019-01-18T23:19:49.202Z,101797.89
2019-01-18T23:22:59.582Z,101798.00
2019-01-18T23:25:56.240Z,101796.30
2019-01-18T23:29:02.641Z,101794.83
2019-01-18T23:31:48.552Z,101788.34
2019-01-18T23:34:28.639Z,101789.59
2019-01-18T23:37:05.889Z,101791.43
2019-01-18T23:39:51.835Z,101787.44
2019-01-18T23:42:37.832Z,101783.42
2019-01-18T23:45:44.796Z,101787.80
2019-01-18T23:48:35.087Z,101786.58
2019-01-18T23:51:17.992Z,101788.09
2019-01-18T23:54:29.547Z,101785.14
2019-01-18T23:57:18.587Z,101781.98
